Time;durP1;ratioP1;P1;durP2;ratioP2;P2;SDS_P1;SDS_P2;PMS_P1;PMS_P2;Temp;Humidity;BMP_temperature;BMP_pressure;BME280_temperature;BME280_humidity;BME280_pressure;Samples;Min_cycle;Max_cycle;Signal;HPM_P1;HPM_P2
2023/12/14 00:00:19;;;;;;;46.08;21.80;;;10.50;99.90;;;;;;4955139;28;88148;-74
2023/12/14 00:02:45;;;;;;;43.80;20.90;;;10.50;99.90;;;;;;4952974;28;90385;-74
2023/12/14 00:05:10;;;;;;;52.55;21.92;;;10.50;99.90;;;;;;4953214;28;90439;-75
2023/12/14 00:07:36;;;;;;;52.05;22.15;;;10.40;99.90;;;;;;4952066;28;91088;-75
2023/12/14 00:10:03;;;;;;;51.17;22.42;;;10.30;99.90;;;;;;4952838;28;88798;-74
2023/12/14 00:12:28;;;;;;;51.78;22.75;;;10.30;99.90;;;;;;4952896;28;90228;-74
2023/12/14 00:14:54;;;;;;;50.22;21.85;;;10.30;99.90;;;;;;4970750;28;89357;-74
2023/12/14 00:17:20;;;;;;;54.63;22.02;;;10.40;99.90;;;;;;4952077;28;91391;-76
2023/12/14 00:19:45;;;;;;;60.78;22.92;;;10.40;99.90;;;;;;4969445;28;87857;-75
2023/12/14 00:22:11;;;;;;;58.38;24.08;;;10.40;99.90;;;;;;4951323;28;90734;-75
2023/12/14 00:24:36;;;;;;;58.38;23.33;;;10.40;99.90;;;;;;4952370;28;91381;-75
2023/12/14 00:27:02;;;;;;;55.20;22.92;;;10.40;99.90;;;;;;4953115;28;89869;-74
2023/12/14 00:29:28;;;;;;;52.90;23.35;;;10.40;99.90;;;;;;4952975;28;87422;-74
2023/12/14 00:31:54;;;;;;;53.63;22.08;;;10.40;99.90;;;;;;4970029;28;87392;-74
2023/12/14 00:34:19;;;;;;;58.70;23.73;;;10.40;99.90;;;;;;4951671;28;92634;-75
2023/12/14 00:36:45;;;;;;;60.00;23.17;;;10.50;99.90;;;;;;4952530;28;92384;-74
2023/12/14 00:39:11;;;;;;;62.35;23.02;;;10.50;99.90;;;;;;4953182;28;87333;-75
2023/12/14 00:41:37;;;;;;;58.63;23.08;;;10.50;99.90;;;;;;4968605;28;87874;-74
2023/12/14 00:44:02;;;;;;;62.28;24.70;;;10.50;99.90;;;;;;4951450;28;92346;-75
2023/12/14 00:46:28;;;;;;;64.10;25.17;;;10.60;99.90;;;;;;4969369;28;88039;-75
2023/12/14 00:48:54;;;;;;;63.67;24.77;;;10.50;99.90;;;;;;4952600;28;87634;-75
2023/12/14 00:51:19;;;;;;;59.17;25.38;;;10.50;99.90;;;;;;4953764;28;90949;-75
2023/12/14 00:53:45;;;;;;;65.80;25.13;;;10.50;99.90;;;;;;4951805;28;91184;-75
2023/12/14 00:56:11;;;;;;;65.07;25.13;;;10.40;99.90;;;;;;4953276;28;91184;-75
2023/12/14 00:58:36;;;;;;;64.28;25.40;;;10.40;99.90;;;;;;4970350;28;88503;-75
2023/12/14 01:01:02;;;;;;;68.10;26.60;;;10.40;99.90;;;;;;4969895;28;89555;-76
2023/12/14 01:03:28;;;;;;;64.47;25.83;;;10.50;99.90;;;;;;4953423;28;91866;-75
2023/12/14 01:05:53;;;;;;;71.40;26.15;;;10.50;99.90;;;;;;4970139;28;89762;-74
2023/12/14 01:08:19;;;;;;;66.40;26.48;;;10.50;99.90;;;;;;4952841;28;87457;-74
2023/12/14 01:10:45;;;;;;;67.88;26.95;;;10.60;99.90;;;;;;4952516;28;90301;-74
2023/12/14 01:13:10;;;;;;;60.80;24.92;;;10.50;99.90;;;;;;4952693;28;91349;-75
2023/12/14 01:15:36;;;;;;;77.78;26.65;;;10.60;99.90;;;;;;4953352;28;91532;-75
2023/12/14 01:18:02;;;;;;;72.88;26.58;;;10.60;99.90;;;;;;4953125;28;87526;-74
2023/12/14 01:20:27;;;;;;;67.45;27.25;;;10.60;99.90;;;;;;4952340;28;90654;-75
2023/12/14 01:22:53;;;;;;;68.72;27.67;;;10.50;99.90;;;;;;4951489;28;91760;-75
2023/12/14 01:25:19;;;;;;;66.97;26.27;;;10.60;99.90;;;;;;4952041;28;92174;-75
2023/12/14 01:27:44;;;;;;;63.85;26.27;;;10.60;99.90;;;;;;4952223;28;87831;-75
2023/12/14 01:30:10;;;;;;;69.00;27.27;;;10.70;99.90;;;;;;4951337;28;90195;-74
2023/12/14 01:32:36;;;;;;;62.17;23.10;;;10.70;99.90;;;;;;4949692;28;92206;-75
2023/12/14 01:35:02;;;;;;;62.28;26.40;;;10.70;99.90;;;;;;4969530;28;88716;-75
2023/12/14 01:37:28;;;;;;;59.30;24.25;;;10.60;99.90;;;;;;4952308;28;87935;-74
2023/12/14 01:39:53;;;;;;;58.90;24.80;;;10.70;99.90;;;;;;4952624;28;90473;-75
2023/12/14 01:42:19;;;;;;;63.33;24.52;;;10.70;99.90;;;;;;4952709;28;92081;-75
2023/12/14 01:44:45;;;;;;;57.83;24.33;;;10.70;99.90;;;;;;4950915;28;91717;-75
2023/12/14 01:47:10;;;;;;;62.72;25.85;;;10.70;99.90;;;;;;4950910;28;89313;-74
2023/12/14 01:49:36;;;;;;;61.22;26.60;;;10.70;99.90;;;;;;4951299;28;90802;-75
2023/12/14 01:52:02;;;;;;;66.07;26.52;;;10.70;99.90;;;;;;4952002;28;91565;-76
2023/12/14 01:54:28;;;;;;;69.55;26.27;;;10.70;99.90;;;;;;4951911;28;91620;-75
2023/12/14 01:56:54;;;;;;;66.90;26.63;;;10.60;99.90;;;;;;4969609;28;87707;-74
2023/12/14 01:59:19;;;;;;;69.50;25.92;;;10.60;99.90;;;;;;4951872;28;90280;-74
2023/12/14 02:01:51;;;;;;;68.72;28.33;;;10.70;99.90;;;;;;4951743;28;91097;-74
2023/12/14 02:04:17;;;;;;;64.65;26.65;;;10.70;99.90;;;;;;4952766;28;91630;-74
2023/12/14 02:06:43;;;;;;;64.90;26.35;;;10.70;99.90;;;;;;4951914;28;87857;-75
2023/12/14 02:09:09;;;;;;;64.25;25.80;;;10.70;99.90;;;;;;4953026;28;90177;-74
2023/12/14 02:11:35;;;;;;;66.78;25.63;;;10.70;99.90;;;;;;4950557;28;91785;-75
2023/12/14 02:14:05;;;;;;;54.85;23.75;;;10.60;99.90;;;;;;4951430;28;92446;-76
2023/12/14 02:16:31;;;;;;;62.78;24.38;;;10.60;99.90;;;;;;4968731;28;87685;-75
2023/12/14 02:18:57;;;;;;;59.72;24.45;;;10.60;99.90;;;;;;4950843;28;90407;-75
2023/12/14 02:21:23;;;;;;;62.72;24.85;;;10.60;99.90;;;;;;4953370;28;91025;-77
2023/12/14 02:23:48;;;;;;;58.83;23.73;;;10.50;99.90;;;;;;4952790;28;91229;-75
2023/12/14 02:26:14;;;;;;;59.90;25.15;;;10.40;99.90;;;;;;4972428;28;87750;-75
2023/12/14 02:28:40;;;;;;;60.08;24.75;;;10.40;99.90;;;;;;4956326;28;90651;-74
2023/12/14 02:31:06;;;;;;;64.13;25.00;;;10.40;99.90;;;;;;4955722;28;90544;-74
2023/12/14 02:33:32;;;;;;;61.60;23.23;;;10.30;99.90;;;;;;4956032;28;89822;-75
2023/12/14 02:35:57;;;;;;;62.83;22.95;;;10.20;99.90;;;;;;4975935;28;88728;-76
2023/12/14 02:38:23;;;;;;;62.53;22.08;;;10.10;99.90;;;;;;4956007;28;90413;-75
2023/12/14 02:40:52;;;;;;;58.85;20.90;;;10.10;99.90;;;;;;4972390;28;88146;-74
2023/12/14 02:43:18;;;;;;;52.30;20.83;;;9.90;99.90;;;;;;4972267;28;88349;-75
2023/12/14 02:45:45;;;;;;;58.67;21.17;;;9.80;99.90;;;;;;4956772;28;87958;-74
2023/12/14 02:48:11;;;;;;;50.63;19.67;;;9.70;99.90;;;;;;4965366;28;89526;-74
2023/12/14 02:50:36;;;;;;;45.60;17.23;;;9.70;99.90;;;;;;4955820;28;89469;-75
2023/12/14 02:53:02;;;;;;;42.70;16.60;;;9.60;99.90;;;;;;4956182;28;90193;-76
2023/12/14 02:55:28;;;;;;;36.60;15.80;;;9.50;99.90;;;;;;4973210;28;87370;-74
2023/12/14 02:57:53;;;;;;;40.83;15.00;;;9.40;99.90;;;;;;4955504;28;89981;-74
2023/12/14 03:00:19;;;;;;;35.00;14.65;;;9.30;99.90;;;;;;4956185;28;92301;-74
2023/12/14 03:02:45;;;;;;;40.45;16.27;;;9.10;99.90;;;;;;4955010;28;91369;-74
2023/12/14 03:05:11;;;;;;;39.20;14.85;;;9.10;99.90;;;;;;4972408;28;87574;-75
2023/12/14 03:07:37;;;;;;;41.03;15.80;;;9.00;99.90;;;;;;4955171;28;90065;-75
2023/12/14 03:10:03;;;;;;;34.33;15.73;;;9.00;99.90;;;;;;4954465;28;90516;-74
2023/12/14 03:12:29;;;;;;;38.40;16.60;;;9.00;99.90;;;;;;4954618;28;91777;-75
2023/12/14 03:14:55;;;;;;;38.05;16.27;;;9.00;99.90;;;;;;4972520;28;87590;-74
2023/12/14 03:17:21;;;;;;;36.40;15.55;;;9.00;99.90;;;;;;4955068;28;87732;-74
2023/12/14 03:19:46;;;;;;;41.47;18.17;;;9.10;99.90;;;;;;4954235;28;94894;-75
2023/12/14 03:22:12;;;;;;;37.70;16.42;;;9.10;99.90;;;;;;4953847;28;91873;-74
2023/12/14 03:24:38;;;;;;;41.83;17.58;;;9.10;99.90;;;;;;4971102;28;88655;-74
2023/12/14 03:27:05;;;;;;;49.78;19.27;;;9.10;99.90;;;;;;4955511;28;89910;-75
2023/12/14 03:29:31;;;;;;;40.00;16.98;;;9.00;99.90;;;;;;4953996;28;92610;-74
2023/12/14 03:31:57;;;;;;;40.95;17.55;;;9.00;99.90;;;;;;4952962;28;89291;-75
2023/12/14 03:34:24;;;;;;;45.30;17.77;;;8.90;99.90;;;;;;4954524;28;87245;-74
2023/12/14 03:36:50;;;;;;;39.55;17.63;;;8.80;99.90;;;;;;4953566;28;90909;-74
2023/12/14 03:39:18;;;;;;;38.92;17.58;;;8.80;99.90;;;;;;4955606;28;90912;-75
2023/12/14 03:41:45;;;;;;;38.78;17.67;;;8.80;99.90;;;;;;4971426;28;88460;-74
2023/12/14 03:44:11;;;;;;;42.40;17.05;;;8.80;99.90;;;;;;4970577;28;87941;-74
2023/12/14 03:46:36;;;;;;;39.15;17.30;;;8.90;99.90;;;;;;4951772;28;90579;-75
2023/12/14 03:49:03;;;;;;;40.00;17.10;;;9.00;99.90;;;;;;4952295;28;92636;-75
2023/12/14 03:51:29;;;;;;;41.00;17.70;;;9.00;99.90;;;;;;4970181;28;89073;-74
2023/12/14 03:53:55;;;;;;;40.65;17.85;;;9.00;99.90;;;;;;4970880;28;87672;-74
2023/12/14 03:56:21;;;;;;;33.92;16.27;;;9.00;99.90;;;;;;4950373;28;89812;-74
2023/12/14 03:58:47;;;;;;;29.77;13.45;;;9.00;99.90;;;;;;4969260;28;88522;-77
2023/12/14 04:01:20;;;;;;;31.20;14.70;;;9.00;99.90;;;;;;4952341;28;91218;-74
2023/12/14 04:03:46;;;;;;;29.77;13.32;;;8.90;99.90;;;;;;4955773;28;87743;-75
2023/12/14 04:06:13;;;;;;;30.48;13.93;;;8.90;99.90;;;;;;4953963;28;90496;-75
2023/12/14 04:08:39;;;;;;;30.25;12.48;;;8.80;99.90;;;;;;4952774;28;91354;-74
2023/12/14 04:11:05;;;;;;;26.50;12.70;;;8.80;99.90;;;;;;4969508;28;88452;-74
2023/12/14 04:13:31;;;;;;;37.42;14.80;;;8.70;99.90;;;;;;4952246;28;88680;-75
2023/12/14 04:15:57;;;;;;;36.88;15.82;;;8.70;99.90;;;;;;4954165;28;90282;-75
2023/12/14 04:18:23;;;;;;;38.88;17.08;;;8.60;99.90;;;;;;4971208;28;88654;-74
2023/12/14 04:20:49;;;;;;;41.67;17.08;;;8.50;99.90;;;;;;4951758;28;90033;-75
2023/12/14 04:23:15;;;;;;;45.70;17.92;;;8.40;99.90;;;;;;4950961;28;87607;-75
2023/12/14 04:25:40;;;;;;;42.67;17.08;;;8.40;99.90;;;;;;4952055;28;90441;-75
2023/12/14 04:28:06;;;;;;;41.80;18.23;;;8.40;99.90;;;;;;4970684;28;87814;-75
2023/12/14 04:30:32;;;;;;;41.80;17.42;;;8.50;99.90;;;;;;4953248;28;91385;-74
2023/12/14 04:32:58;;;;;;;41.70;17.45;;;8.50;99.90;;;;;;4952887;28;87111;-75
2023/12/14 04:35:23;;;;;;;43.10;17.23;;;8.40;99.90;;;;;;4952356;28;89110;-74
2023/12/14 04:37:49;;;;;;;39.45;15.55;;;8.40;99.90;;;;;;4950824;28;92804;-75
2023/12/14 04:40:15;;;;;;;37.70;15.88;;;8.40;99.90;;;;;;4969884;28;89852;-73
2023/12/14 04:42:41;;;;;;;38.13;16.35;;;8.40;99.90;;;;;;4970314;28;87843;-75
2023/12/14 04:45:08;;;;;;;38.90;16.17;;;8.40;99.90;;;;;;4952710;28;90174;-74
2023/12/14 04:47:35;;;;;;;37.55;16.75;;;8.30;99.90;;;;;;4952042;28;90622;-74
2023/12/14 04:50:01;;;;;;;38.38;16.42;;;8.20;99.90;;;;;;4969934;28;89409;-74
2023/12/14 04:52:27;;;;;;;34.35;14.75;;;8.20;99.90;;;;;;4952137;28;87729;-74
2023/12/14 04:54:52;;;;;;;39.00;16.65;;;8.20;99.90;;;;;;4952316;28;90992;-74
2023/12/14 04:57:18;;;;;;;39.40;15.30;;;8.20;99.90;;;;;;4968567;28;88075;-74
2023/12/14 04:59:44;;;;;;;34.35;15.18;;;8.10;99.90;;;;;;4952226;28;91021;-74
2023/12/14 05:02:10;;;;;;;33.67;15.27;;;8.10;99.90;;;;;;4951464;28;91788;-73
2023/12/14 05:04:35;;;;;;;37.35;16.20;;;8.20;99.90;;;;;;4969041;28;87972;-75
2023/12/14 05:07:01;;;;;;;37.40;16.25;;;8.20;99.90;;;;;;4951826;28;91360;-74
2023/12/14 05:09:27;;;;;;;37.53;16.48;;;8.20;99.90;;;;;;4967905;28;88020;-74
2023/12/14 05:11:53;;;;;;;36.63;16.65;;;8.20;99.90;;;;;;4952655;28;87558;-74
2023/12/14 05:14:19;;;;;;;35.38;15.02;;;8.10;99.90;;;;;;4951525;28;90484;-75
2023/12/14 05:16:44;;;;;;;34.22;15.50;;;8.10;99.90;;;;;;4968336;28;87602;-75
2023/12/14 05:19:10;;;;;;;36.63;16.40;;;8.10;99.90;;;;;;4951171;28;91436;-74
2023/12/14 05:21:36;;;;;;;38.63;18.13;;;8.00;99.90;;;;;;4950689;28;87421;-74
2023/12/14 05:24:02;;;;;;;35.40;16.40;;;8.10;99.90;;;;;;4951718;28;90748;-74
2023/12/14 05:26:28;;;;;;;37.63;16.17;;;8.00;99.90;;;;;;4968657;28;89132;-74
2023/12/14 05:28:54;;;;;;;34.83;16.77;;;8.10;99.90;;;;;;4969498;28;87754;-73
2023/12/14 05:31:20;;;;;;;36.30;15.43;;;8.00;99.90;;;;;;4951216;28;88036;-75
2023/12/14 05:33:45;;;;;;;35.50;15.85;;;7.90;99.90;;;;;;4950085;28;89086;-74
2023/12/14 05:36:11;;;;;;;36.25;14.77;;;7.80;99.90;;;;;;4968710;28;88435;-75
2023/12/14 05:38:41;;;;;;;33.13;15.20;;;7.80;99.90;;;;;;4950834;28;90911;-74
2023/12/14 05:41:07;;;;;;;29.40;14.07;;;7.80;99.90;;;;;;4951500;28;87886;-73
2023/12/14 05:43:32;;;;;;;29.77;14.02;;;7.80;99.90;;;;;;4968759;28;86617;-74
2023/12/14 05:45:58;;;;;;;28.63;13.30;;;7.70;99.90;;;;;;4949640;28;91989;-74
2023/12/14 05:48:26;;;;;;;32.75;14.55;;;7.70;99.90;;;;;;4950945;28;90868;-73
2023/12/14 05:50:52;;;;;;;30.27;14.43;;;7.70;99.90;;;;;;4950609;28;91601;-74
2023/12/14 05:53:18;;;;;;;32.28;14.90;;;7.60;99.90;;;;;;4950173;28;90738;-74
2023/12/14 05:55:43;;;;;;;31.02;13.80;;;7.60;99.90;;;;;;4950632;28;91947;-75
2023/12/14 05:58:09;;;;;;;30.67;14.07;;;7.60;99.90;;;;;;4967433;28;88513;-74
2023/12/14 06:00:35;;;;;;;30.48;13.82;;;7.70;99.90;;;;;;4968191;28;87848;-74
2023/12/14 06:03:02;;;;;;;32.15;15.02;;;7.70;99.90;;;;;;4950893;28;89658;-74
2023/12/14 06:05:28;;;;;;;30.95;14.40;;;7.70;99.90;;;;;;4951499;28;91351;-74
2023/12/14 06:07:54;;;;;;;33.65;15.45;;;7.70;99.90;;;;;;4951338;28;91242;-74
2023/12/14 06:10:21;;;;;;;32.97;14.48;;;7.70;99.90;;;;;;4968712;28;87883;-74
2023/12/14 06:12:46;;;;;;;31.45;14.95;;;7.70;99.90;;;;;;4968521;28;92250;-74
2023/12/14 06:15:12;;;;;;;30.45;15.02;;;7.70;99.90;;;;;;4951445;28;92689;-74
2023/12/14 06:17:39;;;;;;;29.85;15.27;;;7.60;99.90;;;;;;4950965;28;91366;-74
2023/12/14 06:20:08;;;;;;;30.20;14.18;;;7.60;99.90;;;;;;4967813;28;87711;-74
2023/12/14 06:22:35;;;;;;;32.13;15.32;;;7.60;99.90;;;;;;4951299;28;90625;-74
2023/12/14 06:25:02;;;;;;;30.92;15.57;;;7.60;99.90;;;;;;4950212;28;90568;-74
2023/12/14 06:27:28;;;;;;;31.90;15.85;;;7.60;99.90;;;;;;4967794;28;87595;-74
2023/12/14 06:29:55;;;;;;;29.65;15.27;;;7.50;99.90;;;;;;4967763;28;87372;-74
2023/12/14 06:32:21;;;;;;;33.55;15.43;;;7.50;99.90;;;;;;4967507;28;88160;-74
2023/12/14 06:34:47;;;;;;;34.13;16.60;;;7.50;99.90;;;;;;4949617;28;91540;-74
2023/12/14 06:37:13;;;;;;;32.95;15.80;;;7.50;99.90;;;;;;4949053;28;91417;-75
2023/12/14 06:39:41;;;;;;;28.10;14.95;;;7.50;99.90;;;;;;4950099;28;88523;-73
2023/12/14 06:42:07;;;;;;;30.75;15.13;;;7.50;99.90;;;;;;4969141;28;87860;-74
2023/12/14 06:44:32;;;;;;;31.58;16.50;;;7.60;99.90;;;;;;4950567;28;91862;-74
2023/12/14 06:46:58;;;;;;;33.53;16.95;;;7.60;99.90;;;;;;4967300;28;87970;-74
2023/12/14 06:49:25;;;;;;;39.00;20.23;;;7.70;99.90;;;;;;4949729;28;87900;-74
2023/12/14 06:51:50;;;;;;;39.53;19.95;;;7.70;99.90;;;;;;4950319;28;89058;-75
2023/12/14 06:54:16;;;;;;;39.85;21.63;;;7.70;99.90;;;;;;4968445;28;89273;-74
2023/12/14 06:56:42;;;;;;;44.47;21.20;;;7.60;99.90;;;;;;4951156;28;91517;-75
2023/12/14 06:59:08;;;;;;;39.25;19.23;;;7.60;99.90;;;;;;4950898;28;87455;-73
2023/12/14 07:01:34;;;;;;;38.38;20.58;;;7.60;99.90;;;;;;4950007;28;90352;-73
2023/12/14 07:03:59;;;;;;;43.15;19.92;;;7.50;99.90;;;;;;4949357;28;90904;-74
2023/12/14 07:06:25;;;;;;;42.75;20.23;;;7.30;99.90;;;;;;4950417;28;90265;-75
2023/12/14 07:08:51;;;;;;;38.97;19.95;;;7.20;99.90;;;;;;4966768;28;87102;-73
2023/12/14 07:11:17;;;;;;;38.80;18.88;;;7.00;99.90;;;;;;4949325;28;90735;-74
2023/12/14 07:13:43;;;;;;;37.45;18.52;;;6.90;99.90;;;;;;4966363;28;88316;-74
2023/12/14 07:16:10;;;;;;;39.15;18.17;;;6.80;99.90;;;;;;4949692;28;91202;-74
2023/12/14 07:18:37;;;;;;;32.88;16.25;;;6.80;99.90;;;;;;4949791;28;87841;-73
2023/12/14 07:21:03;;;;;;;31.27;16.95;;;6.70;99.90;;;;;;4949870;28;87740;-73
2023/12/14 07:23:29;;;;;;;32.80;16.33;;;6.70;99.90;;;;;;4948889;28;91854;-74
2023/12/14 07:25:55;;;;;;;33.55;16.73;;;6.70;99.90;;;;;;4967422;28;87758;-74
2023/12/14 07:28:22;;;;;;;33.22;17.08;;;6.70;99.90;;;;;;4966894;28;88768;-75
2023/12/14 07:30:47;;;;;;;34.33;16.52;;;6.60;99.90;;;;;;4950414;28;90249;-73
2023/12/14 07:33:14;;;;;;;34.00;16.92;;;6.60;99.90;;;;;;4971656;28;88023;-73
2023/12/14 07:35:40;;;;;;;35.50;16.85;;;6.60;99.90;;;;;;4971052;28;88448;-75
2023/12/14 07:38:06;;;;;;;33.92;15.90;;;6.60;99.90;;;;;;4952985;28;87915;-73
2023/12/14 07:40:31;;;;;;;33.83;17.20;;;6.60;99.90;;;;;;4952112;28;90213;-73
2023/12/14 07:42:57;;;;;;;32.70;16.85;;;6.60;99.90;;;;;;4951608;28;91587;-73
2023/12/14 07:45:23;;;;;;;38.45;17.63;;;6.60;99.90;;;;;;4953455;28;90703;-73
2023/12/14 07:47:48;;;;;;;34.35;17.67;;;6.60;99.90;;;;;;4953493;28;87473;-73
2023/12/14 07:50:14;;;;;;;35.08;16.83;;;6.60;99.90;;;;;;4952107;28;90114;-73
2023/12/14 07:52:40;;;;;;;35.25;17.15;;;6.60;99.90;;;;;;4950971;28;92010;-73
2023/12/14 07:55:07;;;;;;;33.95;17.15;;;6.60;99.90;;;;;;4969744;28;89277;-73
2023/12/14 07:57:33;;;;;;;31.10;16.58;;;6.50;99.90;;;;;;4953647;28;87290;-73
2023/12/14 07:59:58;;;;;;;35.88;17.23;;;6.50;99.90;;;;;;4954091;28;90133;-73
2023/12/14 08:02:24;;;;;;;32.97;17.02;;;6.50;99.90;;;;;;4952014;28;91602;-73
2023/12/14 08:04:50;;;;;;;37.17;17.63;;;6.50;99.90;;;;;;4951388;28;91614;-73
2023/12/14 08:07:15;;;;;;;35.58;17.33;;;6.50;99.90;;;;;;4953392;28;87324;-74
2023/12/14 08:09:41;;;;;;;38.17;17.95;;;6.50;99.90;;;;;;4953577;28;90004;-73
2023/12/14 08:12:07;;;;;;;36.22;17.65;;;6.50;99.90;;;;;;4971583;28;88639;-73
2023/12/14 08:14:34;;;;;;;35.00;17.42;;;6.50;99.90;;;;;;4967009;28;88532;-73
2023/12/14 08:17:04;;;;;;;41.92;17.98;;;6.50;99.90;;;;;;4953167;28;88519;-73
2023/12/14 08:19:38;;;;;;;39.25;18.00;;;6.50;99.90;;;;;;4946006;28;89517;-72
2023/12/14 08:22:11;;;;;;;39.90;18.50;;;6.50;99.90;;;;;;4964028;28;91370;-73
2023/12/14 08:24:37;;;;;;;37.40;18.83;;;6.50;99.90;;;;;;4959648;28;90025;-73
2023/12/14 08:27:03;;;;;;;37.97;18.00;;;6.50;99.90;;;;;;4963888;28;87785;-73
2023/12/14 08:29:29;;;;;;;40.20;19.70;;;6.40;99.90;;;;;;4951453;28;90843;-73
2023/12/14 08:31:57;;;;;;;41.85;19.02;;;6.40;99.90;;;;;;4969092;28;88766;-73
2023/12/14 08:34:23;;;;;;;38.85;17.63;;;6.40;99.90;;;;;;4969126;28;87906;-73
2023/12/14 08:36:49;;;;;;;40.53;18.83;;;6.40;99.90;;;;;;4952373;28;87490;-72
2023/12/14 08:39:15;;;;;;;37.42;17.20;;;6.40;99.90;;;;;;4951610;28;90221;-73
2023/12/14 08:41:41;;;;;;;39.47;18.52;;;6.40;99.90;;;;;;4950711;28;92425;-73
2023/12/14 08:44:07;;;;;;;39.95;17.67;;;6.40;99.90;;;;;;4968216;28;89076;-73
2023/12/14 08:46:46;;;;;;;38.63;16.73;;;6.50;99.90;;;;;;4970172;28;87522;-73
2023/12/14 08:49:13;;;;;;;36.15;17.95;;;6.40;99.90;;;;;;4951734;28;88949;-75
2023/12/14 08:51:39;;;;;;;36.72;17.05;;;6.50;99.90;;;;;;4968740;28;88690;-73
2023/12/14 08:54:06;;;;;;;38.90;17.00;;;6.50;99.90;;;;;;4969607;28;88623;-74
2023/12/14 08:56:32;;;;;;;37.28;17.70;;;6.50;99.90;;;;;;4969215;28;87997;-74
2023/12/14 08:58:59;;;;;;;38.08;17.52;;;6.50;99.90;;;;;;4968705;28;86895;-75
2023/12/14 09:01:25;;;;;;;41.17;18.33;;;6.50;99.90;;;;;;4968849;28;88042;-73
2023/12/14 09:03:50;;;;;;;40.10;18.00;;;6.50;99.90;;;;;;4951696;28;91438;-73
2023/12/14 09:06:17;;;;;;;36.83;17.65;;;6.50;99.90;;;;;;4970096;28;88212;-74
2023/12/14 09:08:44;;;;;;;38.25;18.73;;;6.50;99.90;;;;;;4951229;28;89541;-74
2023/12/14 09:11:09;;;;;;;34.60;16.92;;;6.50;99.90;;;;;;4951688;28;91677;-73
2023/12/14 09:13:35;;;;;;;37.03;18.05;;;6.50;99.90;;;;;;4971316;28;88845;-75
2023/12/14 09:16:01;;;;;;;36.33;16.88;;;6.50;99.90;;;;;;4954086;28;87207;-76
2023/12/14 09:18:27;;;;;;;41.25;18.10;;;6.50;99.90;;;;;;4971999;28;88300;-75
2023/12/14 09:20:52;;;;;;;34.85;16.10;;;6.50;99.90;;;;;;4954437;28;91313;-73
2023/12/14 09:23:19;;;;;;;34.55;16.45;;;6.50;99.90;;;;;;4953089;28;91717;-73
2023/12/14 09:25:45;;;;;;;34.58;16.67;;;6.50;99.90;;;;;;4970722;28;87624;-74
2023/12/14 09:28:11;;;;;;;37.72;16.92;;;6.50;99.90;;;;;;4952405;28;90493;-74
2023/12/14 09:30:36;;;;;;;35.20;16.33;;;6.50;99.90;;;;;;4968485;28;88972;-76
2023/12/14 09:33:02;;;;;;;35.83;16.67;;;6.50;99.90;;;;;;4952823;28;92613;-75
2023/12/14 09:35:27;;;;;;;31.73;15.82;;;6.60;99.90;;;;;;4952052;28;87943;-74
2023/12/14 09:37:53;;;;;;;36.33;15.98;;;6.60;99.90;;;;;;4952769;28;90522;-73
2023/12/14 09:40:19;;;;;;;32.85;16.88;;;6.60;99.90;;;;;;4951685;28;91703;-74
2023/12/14 09:42:45;;;;;;;31.67;16.63;;;6.60;99.90;;;;;;4950474;28;89425;-74
2023/12/14 09:45:11;;;;;;;36.85;17.02;;;6.60;99.90;;;;;;4951469;28;87208;-73
2023/12/14 09:47:38;;;;;;;34.95;16.70;;;6.60;99.90;;;;;;4951617;28;89012;-75
2023/12/14 09:50:05;;;;;;;34.80;17.15;;;6.70;99.90;;;;;;4951741;28;91524;-74
2023/12/14 09:52:32;;;;;;;30.45;15.93;;;6.70;99.90;;;;;;4950824;28;92278;-74
2023/12/14 09:54:57;;;;;;;33.67;16.48;;;6.80;99.90;;;;;;4968003;28;88469;-74
2023/12/14 09:57:25;;;;;;;31.15;15.82;;;6.80;99.90;;;;;;4952384;28;90455;-74
2023/12/14 09:59:55;;;;;;;29.23;15.10;;;6.90;99.90;;;;;;4951467;28;91786;-74
2023/12/14 10:02:27;;;;;;;37.50;17.75;;;6.90;99.90;;;;;;4967945;28;87554;-75
2023/12/14 10:04:52;;;;;;;33.35;15.40;;;6.90;99.90;;;;;;4950755;28;87804;-75
2023/12/14 10:07:19;;;;;;;36.78;16.15;;;6.90;99.90;;;;;;4966810;28;87853;-73
2023/12/14 10:09:45;;;;;;;34.20;15.38;;;6.90;99.90;;;;;;4944820;28;91765;-75
2023/12/14 10:12:11;;;;;;;28.35;14.93;;;6.90;99.90;;;;;;4946080;28;91381;-73
2023/12/14 10:14:38;;;;;;;32.63;14.60;;;6.90;99.90;;;;;;4945148;28;88214;-75
2023/12/14 10:17:31;;;;;;;29.38;14.35;;;6.90;99.90;;;;;;4943122;28;90711;-74
2023/12/14 10:19:57;;;;;;;30.15;14.13;;;6.90;99.90;;;;;;4942809;28;92824;-76
2023/12/14 10:22:26;;;;;;;32.33;14.98;;;6.80;99.90;;;;;;4944585;28;90805;-74
2023/12/14 10:24:52;;;;;;;27.67;14.57;;;6.80;99.90;;;;;;4944403;28;87562;-74
2023/12/14 10:27:17;;;;;;;28.58;14.65;;;6.80;99.90;;;;;;4944737;28;90593;-75
2023/12/14 10:29:46;;;;;;;28.40;14.50;;;6.90;99.90;;;;;;4958636;28;88539;-76
2023/12/14 10:32:12;;;;;;;31.27;14.38;;;6.80;99.90;;;;;;4940112;28;90432;-76
2023/12/14 10:34:39;;;;;;;23.25;11.40;;;6.90;99.90;;;;;;4961303;28;88297;-76
2023/12/14 10:37:09;;;;;;;20.52;10.80;;;6.90;99.90;;;;;;4943810;28;90342;-75
2023/12/14 10:39:35;;;;;;;19.33;9.93;;;6.90;99.90;;;;;;4938040;28;91755;-78
2023/12/14 10:42:06;;;;;;;21.40;10.13;;;6.90;99.90;;;;;;4944419;28;91181;-74
2023/12/14 10:44:36;;;;;;;19.98;10.52;;;6.90;99.90;;;;;;4956957;28;89050;-74
2023/12/14 10:47:06;;;;;;;24.77;10.48;;;7.00;99.90;;;;;;4936241;28;90705;-74
2023/12/14 10:49:34;;;;;;;17.95;9.63;;;7.00;99.90;;;;;;4942450;28;94321;-74
2023/12/14 10:52:02;;;;;;;23.90;10.65;;;7.00;99.90;;;;;;4948550;28;91679;-74
2023/12/14 10:54:30;;;;;;;19.30;10.15;;;7.00;99.90;;;;;;4950846;28;87862;-74
2023/12/14 10:56:57;;;;;;;20.83;11.20;;;7.10;99.90;;;;;;4949138;28;90618;-75
2023/12/14 10:59:26;;;;;;;22.38;11.18;;;7.10;99.90;;;;;;4948578;28;91776;-74
2023/12/14 11:01:55;;;;;;;18.98;9.90;;;7.10;99.90;;;;;;4949333;28;90861;-73
2023/12/14 11:04:27;;;;;;;18.02;10.38;;;7.20;99.90;;;;;;4948269;28;87847;-75
2023/12/14 11:06:54;;;;;;;17.95;9.75;;;7.20;99.90;;;;;;4949666;28;90882;-73
2023/12/14 11:09:24;;;;;;;17.27;10.77;;;7.20;99.90;;;;;;4971013;28;89210;-75
2023/12/14 11:11:53;;;;;;;15.07;8.65;;;7.30;99.90;;;;;;4951784;28;92471;-74
2023/12/14 11:14:19;;;;;;;16.40;8.73;;;7.40;99.90;;;;;;4953249;28;87969;-74
2023/12/14 11:16:47;;;;;;;14.77;9.57;;;7.40;99.90;;;;;;4952232;28;90803;-74
2023/12/14 11:19:25;;;;;;;17.50;10.90;;;7.50;99.90;;;;;;4952706;28;91656;-75
2023/12/14 11:21:56;;;;;;;18.17;10.32;;;7.50;99.90;;;;;;4954947;28;90048;-74
2023/12/14 11:24:23;;;;;;;19.23;10.13;;;7.50;99.90;;;;;;4950488;28;87431;-74
2023/12/14 11:26:52;;;;;;;18.55;9.80;;;7.50;99.90;;;;;;4970746;28;87754;-75
2023/12/14 11:29:22;;;;;;;15.50;8.70;;;7.50;99.90;;;;;;4969868;28;91496;-73
2023/12/14 11:31:48;;;;;;;20.92;10.00;;;7.50;99.90;;;;;;4953618;28;90987;-74
2023/12/14 11:34:17;;;;;;;15.35;9.10;;;7.50;99.90;;;;;;4969994;28;88869;-74
2023/12/14 11:36:43;;;;;;;17.35;8.63;;;7.40;99.90;;;;;;4957064;28;90418;-75
2023/12/14 11:39:11;;;;;;;18.02;8.18;;;7.50;99.90;;;;;;4953440;28;90792;-74
2023/12/14 11:41:38;;;;;;;14.73;8.50;;;7.50;99.90;;;;;;4952364;28;90805;-74
2023/12/14 11:44:04;;;;;;;17.70;8.43;;;7.40;99.90;;;;;;4953340;28;87735;-74
2023/12/14 11:46:30;;;;;;;14.57;8.00;;;7.40;99.90;;;;;;4971402;28;87488;-75
2023/12/14 11:49:03;;;;;;;14.00;7.78;;;7.40;99.90;;;;;;4953678;28;91465;-75
2023/12/14 11:51:30;;;;;;;14.00;7.63;;;7.40;99.90;;;;;;4953680;28;91717;-74
2023/12/14 11:54:00;;;;;;;15.82;7.68;;;7.30;99.90;;;;;;4954735;28;87947;-75
2023/12/14 11:56:25;;;;;;;12.43;7.93;;;7.40;99.90;;;;;;4952357;28;89686;-74
2023/12/14 11:58:53;;;;;;;19.60;8.35;;;7.30;99.90;;;;;;4969629;28;89952;-73
2023/12/14 12:01:21;;;;;;;14.80;7.43;;;7.30;99.90;;;;;;4970423;28;87954;-75
2023/12/14 12:03:47;;;;;;;13.25;8.20;;;7.20;99.90;;;;;;4952330;28;87215;-74
2023/12/14 12:06:29;;;;;;;14.05;8.10;;;7.20;99.90;;;;;;4953475;28;90210;-75
2023/12/14 12:08:55;;;;;;;17.23;8.32;;;7.30;99.90;;;;;;4953474;28;95089;-75
2023/12/14 12:11:22;;;;;;;15.57;8.57;;;7.20;99.90;;;;;;4970255;28;88056;-74
2023/12/14 12:13:55;;;;;;;17.08;8.70;;;7.20;99.90;;;;;;4970411;28;87166;-74
2023/12/14 12:16:22;;;;;;;13.18;8.35;;;7.20;99.90;;;;;;4970635;28;87419;-74
2023/12/14 12:18:48;;;;;;;17.35;9.25;;;7.10;99.90;;;;;;4952846;28;91017;-74
2023/12/14 12:21:14;;;;;;;13.57;7.78;;;7.20;99.90;;;;;;4952501;28;89161;-75
2023/12/14 12:23:41;;;;;;;13.45;7.78;;;7.20;99.90;;;;;;4970156;28;88664;-74
2023/12/14 12:26:07;;;;;;;15.25;8.65;;;7.20;99.90;;;;;;4970344;28;87303;-74
2023/12/14 12:28:33;;;;;;;15.18;8.65;;;7.20;99.90;;;;;;4953448;28;91106;-74
2023/12/14 12:30:59;;;;;;;20.50;8.60;;;7.20;99.90;;;;;;4952347;28;91892;-75